Kelibia, Tunisia

11:14 AM CET on October 23, 2014 (GMT +0100)
Carthage | Change Station
CLOSE
Current Station
Airport
Location: Tunis-Carthage,
Elevation: 13 ft
Nearby Weather Stations

Elev 13 ft 36.83 °N, 10.23 °E | Updated 14 minutes ago

Mostly Cloudy
Mostly Cloudy
72 °F
Feels Like 72 °F
N
18
Wind Variable Wind from WNW

Today
High -- | Low -- °F
--% Chance of Precip.
Yesterday
High -- | Low -- °F
Precip. -- in
6:30 AM 5:29 PM
Waning Crescent, 0% visible
Pressure 29.98 in
Visibility 6.2 miles
Clouds Mostly Cloudy 2600 ft
Dew Point 46 °F
Humidity 41%
Rainfall 0.00 in
Snow Depth Not available.
UV 3 out of 12
Pollen Not available.
Air Quality Not available.
Flu Activity Not available.
METAR DTTA 231000Z 29016KT 9999 BKN026 22/08 Q1015 NOSIG

More Conditions Fewer Conditions

Pressure 29.98 in
Visibility 6.2 miles
Clouds Mostly Cloudy 2600 ft
Dew Point 46 °F
Humidity 41%
Rainfall 0.00 in
Snow Depth Not available.
UV 3 out of 12
Pollen Not available.
Air Quality Not available.
Flu Activity Not available.
METAR DTTA 231000Z 29016KT 9999 BKN026 22/08 Q1015 NOSIG

More Conditions Fewer Conditions

10-Day Weather Forecast

Almanac

Astronomy

Oct. 23, 2014 Rise Set
Actual Time 6:30 AM CET 5:29 PM CET
Civil Twilight 6:04 AM CET 5:55 PM CET
Nautical Twilight 5:33 AM CET 6:25 PM CET
Astronomical Twilight 5:03 AM CET 6:55 PM CET
Moon 5:54 AM CET 5:20 PM CET
Length of Visible Light 11h 51m
Length of Day
10h 58m
Tomorrow will be 2m 11s shorter.
Waning Crescent, 0% of the Moon is Illuminated
Today
Waning Crescent
Oct 23
New
Oct 30
First Quarter
Nov 6
Full
Nov 14
Last Quarter

Yesterday's Extremes

Country Highs Country Lows

Community

WunderPhotos

Upload Photos

1,764,202 photos uploaded!

Nearby

Snow Depth

Not available.

Earthquake Activity

City Distance Mag. Time & Date
No recent earthquake activity has been reported nearby.
Minimum magnitude displayed is 2.5.

Coastal Water Temperatures

Place Temperature
No Stations Reporting

Nearby Weather Stations